BAW113 EGLL-KJFK
Flight info
| Callsign | BAW113 |
|---|---|
| Flight time | 6h 36m |
| Altitude | 38000 |
| Route | CPT DCT DIDZA L9 OKSAW DCT BIBPE DCT BUCGO DCT FELCA DCT NICXI DCT BAKUR DCT NEBIN/M084F380 NATB BUDAR/N0478F380 DCT ALLEX DCT PLYMM PARCH4 |
| Aircraft | A35K/H-SDE2E3GHIJ3J4J5LM1ORWXY/LB1D1 |
Departure
| Time | 2026-04-30 13:33 |
|---|---|
| Airport | London Heathrow Airport (EGLL) |
Arrival
| Time | 2026-04-30 20:10 |
|---|---|
| Airport | John F. Kennedy International Airport (KJFK) |
| Time | Latitude | Longitude | Altitude | Speed | Heading |
|---|---|---|---|---|---|
| 2026-04-30 12:38 | 51.46984 | -0.47733 | 95 ft | 0 kts | 89° |
| 2026-04-30 13:21 | 51.46984 | -0.47732 | 92 ft | 0 kts | 89° |
| 2026-04-30 13:22 | 51.46984 | -0.47751 | 95 ft | 4 kts | 89° |
| 2026-04-30 13:23 | 51.46984 | -0.47795 | 91 ft | 4 kts | 89° |
| 2026-04-30 13:23 | 51.46996 | -0.47862 | 92 ft | 4 kts | 153° |
| 2026-04-30 13:24 | 51.47043 | -0.47869 | 92 ft | 1 kts | 179° |
| 2026-04-30 13:24 | 51.47044 | -0.47869 | 92 ft | 0 kts | 179° |
| 2026-04-30 13:26 | 51.47043 | -0.47869 | 92 ft | 1 kts | 179° |
| 2026-04-30 13:27 | 51.47019 | -0.47869 | 92 ft | 4 kts | 179° |
| 2026-04-30 13:28 | 51.46855 | -0.47867 | 92 ft | 12 kts | 180° |
| 2026-04-30 13:28 | 51.46694 | -0.47866 | 94 ft | 7 kts | 180° |
| 2026-04-30 13:28 | 51.46662 | -0.47909 | 95 ft | 7 kts | 253° |
| 2026-04-30 13:29 | 51.46653 | -0.48113 | 94 ft | 11 kts | 269° |
| 2026-04-30 13:29 | 51.46652 | -0.48419 | 92 ft | 16 kts | 270° |
| 2026-04-30 13:30 | 51.46617 | -0.48753 | 96 ft | 1 kts | 205° |
| 2026-04-30 13:31 | 51.46616 | -0.48754 | 96 ft | 1 kts | 205° |
| 2026-04-30 13:31 | 51.46587 | -0.48771 | 94 ft | 8 kts | 197° |
| 2026-04-30 13:32 | 51.46479 | -0.48665 | 95 ft | 11 kts | 91° |
| 2026-04-30 13:32 | 51.46478 | -0.48497 | 95 ft | 8 kts | 90° |
| 2026-04-30 13:33 | 51.46481 | -0.47520 | 93 ft | 103 kts | 89° |
| 2026-04-30 13:33 | 51.46493 | -0.44255 | 701 ft | 164 kts | 91° |
| 2026-04-30 13:34 | 51.46486 | -0.42364 | 1254 ft | 178 kts | 92° |
| 2026-04-30 13:34 | 51.44062 | -0.37367 | 2271 ft | 241 kts | 167° |
| 2026-04-30 13:35 | 51.42338 | -0.37598 | 2848 ft | 260 kts | 194° |
| 2026-04-30 13:35 | 51.39857 | -0.41742 | 4473 ft | 279 kts | 251° |
| 2026-04-30 13:36 | 51.40355 | -0.47916 | 6064 ft | 286 kts | 281° |
| 2026-04-30 13:36 | 51.40843 | -0.51013 | 6792 ft | 287 kts | 279° |
| 2026-04-30 13:36 | 51.41684 | -0.57345 | 8061 ft | 295 kts | 277° |
| 2026-04-30 13:37 | 51.42075 | -0.60611 | 8703 ft | 299 kts | 277° |
| 2026-04-30 13:37 | 51.42838 | -0.67253 | 10008 ft | 307 kts | 277° |
| 2026-04-30 13:38 | 51.43610 | -0.74175 | 10763 ft | 332 kts | 277° |
| 2026-04-30 13:38 | 51.44037 | -0.77899 | 11009 ft | 347 kts | 278° |
| 2026-04-30 13:38 | 51.45013 | -0.85804 | 11548 ft | 373 kts | 279° |
| 2026-04-30 13:39 | 51.46007 | -0.94084 | 12547 ft | 382 kts | 278° |
| 2026-04-30 13:39 | 51.46968 | -1.02538 | 13603 ft | 388 kts | 278° |
| 2026-04-30 13:40 | 51.47453 | -1.06819 | 14093 ft | 392 kts | 278° |
| 2026-04-30 13:40 | 51.47941 | -1.11135 | 14553 ft | 395 kts | 278° |
| 2026-04-30 13:40 | 51.48433 | -1.15483 | 15059 ft | 396 kts | 277° |
| 2026-04-30 13:40 | 51.49055 | -1.19752 | 15532 ft | 401 kts | 287° |
| 2026-04-30 13:41 | 51.50395 | -1.23706 | 16009 ft | 407 kts | 307° |
| 2026-04-30 13:41 | 51.52255 | -1.27158 | 16481 ft | 411 kts | 313° |
| 2026-04-30 13:41 | 51.54311 | -1.30374 | 16945 ft | 414 kts | 316° |
| 2026-04-30 13:41 | 51.56461 | -1.33495 | 17415 ft | 417 kts | 317° |
| 2026-04-30 13:42 | 51.58643 | -1.36613 | 17878 ft | 419 kts | 317° |
| 2026-04-30 13:42 | 51.60618 | -1.40066 | 18329 ft | 420 kts | 304° |
| 2026-04-30 13:42 | 51.61647 | -1.42437 | 18600 ft | 421 kts | 301° |
| 2026-04-30 13:43 | 51.63187 | -1.46451 | 18959 ft | 424 kts | 297° |
| 2026-04-30 13:43 | 51.64633 | -1.50629 | 19260 ft | 429 kts | 295° |
| 2026-04-30 13:43 | 51.66011 | -1.54835 | 19649 ft | 431 kts | 295° |
| 2026-04-30 13:43 | 51.67396 | -1.59137 | 20042 ft | 434 kts | 295° |
| 2026-04-30 13:44 | 51.68791 | -1.63468 | 20434 ft | 437 kts | 295° |
| 2026-04-30 13:44 | 51.69989 | -1.67963 | 20799 ft | 436 kts | 284° |
| 2026-04-30 13:44 | 51.70686 | -1.72715 | 21184 ft | 435 kts | 277° |
| 2026-04-30 13:44 | 51.71175 | -1.77536 | 21564 ft | 436 kts | 274° |
| 2026-04-30 13:45 | 51.71890 | -1.87312 | 22323 ft | 441 kts | 272° |
| 2026-04-30 13:45 | 51.72211 | -1.92247 | 22696 ft | 444 kts | 271° |
| 2026-04-30 13:45 | 51.72533 | -1.97224 | 23081 ft | 447 kts | 271° |
| 2026-04-30 13:46 | 51.72863 | -2.02229 | 23435 ft | 450 kts | 271° |
| 2026-04-30 13:46 | 51.73199 | -2.07204 | 23816 ft | 453 kts | 272° |
| 2026-04-30 13:46 | 51.73547 | -2.12263 | 24146 ft | 455 kts | 272° |
| 2026-04-30 13:46 | 51.73898 | -2.17336 | 24487 ft | 456 kts | 272° |
| 2026-04-30 13:47 | 51.74250 | -2.22433 | 24829 ft | 458 kts | 272° |
| 2026-04-30 13:47 | 51.74603 | -2.27563 | 25166 ft | 460 kts | 272° |
| 2026-04-30 13:47 | 51.74955 | -2.32708 | 25507 ft | 462 kts | 272° |
| 2026-04-30 13:47 | 51.75305 | -2.37866 | 25851 ft | 463 kts | 272° |
| 2026-04-30 13:48 | 51.75653 | -2.43042 | 26216 ft | 465 kts | 272° |
| 2026-04-30 13:48 | 51.75996 | -2.48178 | 26691 ft | 463 kts | 272° |
| 2026-04-30 13:48 | 51.76340 | -2.53366 | 27081 ft | 464 kts | 272° |
| 2026-04-30 13:48 | 51.76682 | -2.58568 | 27443 ft | 466 kts | 272° |
| 2026-04-30 13:49 | 51.77023 | -2.63777 | 27786 ft | 468 kts | 272° |
| 2026-04-30 13:49 | 51.77365 | -2.69019 | 28156 ft | 470 kts | 272° |
| 2026-04-30 13:49 | 51.77703 | -2.74271 | 28519 ft | 471 kts | 272° |
| 2026-04-30 13:49 | 51.78041 | -2.79562 | 28825 ft | 475 kts | 272° |
| 2026-04-30 13:50 | 51.78372 | -2.84812 | 29342 ft | 478 kts | 272° |
| 2026-04-30 13:50 | 51.79041 | -2.95525 | 30207 ft | 480 kts | 272° |
| 2026-04-30 13:50 | 51.79375 | -3.00891 | 30609 ft | 481 kts | 272° |
| 2026-04-30 13:51 | 51.79707 | -3.06282 | 30905 ft | 484 kts | 272° |
| 2026-04-30 13:51 | 51.80039 | -3.11712 | 31180 ft | 486 kts | 272° |
| 2026-04-30 13:51 | 51.80371 | -3.17173 | 31447 ft | 488 kts | 272° |
| 2026-04-30 13:51 | 51.80701 | -3.22652 | 31735 ft | 490 kts | 272° |
| 2026-04-30 13:52 | 51.81029 | -3.28144 | 32020 ft | 492 kts | 272° |
| 2026-04-30 13:52 | 51.81356 | -3.33663 | 32269 ft | 494 kts | 272° |
| 2026-04-30 13:52 | 51.81677 | -3.39127 | 32528 ft | 496 kts | 272° |
| 2026-04-30 13:52 | 51.82000 | -3.44675 | 32877 ft | 495 kts | 272° |
| 2026-04-30 13:53 | 51.82323 | -3.50223 | 33248 ft | 494 kts | 272° |
| 2026-04-30 13:53 | 51.82829 | -3.55727 | 33639 ft | 495 kts | 277° |
| 2026-04-30 13:53 | 51.83479 | -3.61192 | 34006 ft | 495 kts | 278° |
| 2026-04-30 13:53 | 51.84166 | -3.66654 | 34350 ft | 495 kts | 278° |
| 2026-04-30 13:54 | 51.84870 | -3.72103 | 34676 ft | 494 kts | 278° |
| 2026-04-30 13:54 | 51.85579 | -3.77533 | 34972 ft | 493 kts | 278° |
| 2026-04-30 13:54 | 51.86285 | -3.82964 | 35267 ft | 493 kts | 278° |
| 2026-04-30 13:54 | 51.86988 | -3.88401 | 35547 ft | 493 kts | 278° |
| 2026-04-30 13:55 | 51.87685 | -3.93841 | 35816 ft | 493 kts | 278° |
| 2026-04-30 13:55 | 51.88377 | -3.99280 | 36071 ft | 493 kts | 278° |
| 2026-04-30 13:55 | 51.89064 | -4.04717 | 36348 ft | 493 kts | 278° |
| 2026-04-30 13:55 | 51.89739 | -4.10089 | 36611 ft | 492 kts | 278° |
| 2026-04-30 13:56 | 51.90419 | -4.15516 | 36881 ft | 492 kts | 278° |
| 2026-04-30 13:56 | 51.91097 | -4.20951 | 37146 ft | 491 kts | 278° |
| 2026-04-30 13:56 | 51.91772 | -4.26385 | 37393 ft | 491 kts | 278° |
| 2026-04-30 13:56 | 51.92446 | -4.31822 | 37617 ft | 491 kts | 278° |
| 2026-04-30 13:57 | 51.93115 | -4.37252 | 37855 ft | 490 kts | 278° |
| 2026-04-30 13:57 | 51.93782 | -4.42681 | 38059 ft | 491 kts | 278° |
| 2026-04-30 13:57 | 51.95108 | -4.53563 | 38079 ft | 496 kts | 278° |
| 2026-04-30 13:58 | 51.97103 | -4.70067 | 38068 ft | 497 kts | 278° |
| 2026-04-30 13:59 | 51.98420 | -4.81081 | 38083 ft | 497 kts | 278° |
| 2026-04-30 13:59 | 51.99728 | -4.92104 | 38087 ft | 497 kts | 277° |
| 2026-04-30 14:00 | 52.01214 | -5.03062 | 38079 ft | 498 kts | 285° |
| 2026-04-30 14:00 | 52.04161 | -5.13285 | 38082 ft | 503 kts | 296° |
| 2026-04-30 14:00 | 52.05888 | -5.18148 | 38085 ft | 504 kts | 297° |
| 2026-04-30 14:01 | 52.09506 | -5.27929 | 38079 ft | 504 kts | 298° |
| 2026-04-30 14:01 | 52.13129 | -5.37685 | 38082 ft | 504 kts | 298° |
| 2026-04-30 14:02 | 52.16730 | -5.47498 | 38080 ft | 504 kts | 298° |
| 2026-04-30 14:02 | 52.20302 | -5.57324 | 38087 ft | 504 kts | 298° |
| 2026-04-30 14:03 | 52.23701 | -5.67250 | 38089 ft | 502 kts | 290° |
| 2026-04-30 14:03 | 52.25970 | -5.77951 | 38092 ft | 498 kts | 284° |
| 2026-04-30 14:04 | 52.27921 | -5.88813 | 38094 ft | 498 kts | 283° |
| 2026-04-30 14:04 | 52.29810 | -5.99687 | 38102 ft | 497 kts | 282° |
| 2026-04-30 14:05 | 52.31697 | -6.10552 | 38102 ft | 496 kts | 282° |
| 2026-04-30 14:05 | 52.33583 | -6.21397 | 38107 ft | 496 kts | 282° |
| 2026-04-30 14:06 | 52.36405 | -6.37701 | 38104 ft | 496 kts | 282° |
| 2026-04-30 14:07 | 52.39190 | -6.53938 | 38107 ft | 496 kts | 282° |
| 2026-04-30 14:08 | 52.41962 | -6.70266 | 38102 ft | 496 kts | 282° |
| 2026-04-30 14:08 | 52.44716 | -6.86632 | 38102 ft | 496 kts | 282° |
| 2026-04-30 14:09 | 52.46539 | -6.97550 | 38103 ft | 496 kts | 282° |
| 2026-04-30 14:10 | 52.49240 | -7.13866 | 38102 ft | 496 kts | 281° |
| 2026-04-30 14:10 | 52.51035 | -7.24793 | 38102 ft | 495 kts | 281° |
| 2026-04-30 14:11 | 52.52819 | -7.35718 | 38098 ft | 496 kts | 281° |
| 2026-04-30 14:11 | 52.54597 | -7.46688 | 38101 ft | 496 kts | 281° |
| 2026-04-30 14:12 | 52.56365 | -7.57669 | 38096 ft | 497 kts | 281° |
| 2026-04-30 14:12 | 52.58114 | -7.68588 | 38096 ft | 497 kts | 281° |
| 2026-04-30 14:13 | 52.59863 | -7.79583 | 38097 ft | 497 kts | 281° |
| 2026-04-30 14:13 | 52.61603 | -7.90596 | 38098 ft | 497 kts | 281° |
| 2026-04-30 14:14 | 52.63332 | -8.01619 | 38098 ft | 497 kts | 281° |
| 2026-04-30 14:14 | 52.65049 | -8.12636 | 38095 ft | 497 kts | 281° |
| 2026-04-30 14:15 | 52.66750 | -8.23620 | 38091 ft | 497 kts | 281° |
| 2026-04-30 14:15 | 52.68452 | -8.34691 | 38094 ft | 497 kts | 281° |
| 2026-04-30 14:16 | 52.70141 | -8.45754 | 38087 ft | 497 kts | 281° |
| 2026-04-30 14:16 | 52.71810 | -8.56759 | 38101 ft | 498 kts | 281° |
| 2026-04-30 14:17 | 52.73484 | -8.67876 | 38087 ft | 499 kts | 280° |
| 2026-04-30 14:17 | 52.75151 | -8.79024 | 38088 ft | 500 kts | 280° |
| 2026-04-30 14:18 | 52.76808 | -8.90177 | 38083 ft | 500 kts | 280° |
| 2026-04-30 14:18 | 52.79264 | -9.06860 | 38084 ft | 500 kts | 280° |
| 2026-04-30 14:19 | 52.81710 | -9.23654 | 38073 ft | 501 kts | 280° |
| 2026-04-30 14:20 | 52.83329 | -9.34876 | 38063 ft | 502 kts | 280° |
| 2026-04-30 14:20 | 52.85733 | -9.51682 | 38058 ft | 502 kts | 280° |
| 2026-04-30 14:21 | 52.87058 | -9.61032 | 38068 ft | 502 kts | 280° |
| 2026-04-30 14:22 | 52.89433 | -9.77928 | 38061 ft | 503 kts | 280° |
| 2026-04-30 14:22 | 52.91789 | -9.94875 | 38055 ft | 503 kts | 279° |
| 2026-04-30 14:23 | 52.94883 | -10.17432 | 38054 ft | 503 kts | 279° |
| 2026-04-30 14:24 | 52.97186 | -10.34452 | 38055 ft | 505 kts | 279° |
| 2026-04-30 14:25 | 53.00228 | -10.57237 | 38052 ft | 505 kts | 279° |
| 2026-04-30 14:26 | 53.02480 | -10.74341 | 38054 ft | 505 kts | 279° |
| 2026-04-30 14:27 | 53.04698 | -10.91391 | 38054 ft | 505 kts | 279° |
| 2026-04-30 14:27 | 53.06169 | -11.02809 | 38054 ft | 505 kts | 279° |
| 2026-04-30 14:28 | 53.08355 | -11.19959 | 38050 ft | 505 kts | 279° |
| 2026-04-30 14:28 | 53.09790 | -11.31332 | 38051 ft | 506 kts | 279° |
| 2026-04-30 14:29 | 53.12654 | -11.54320 | 38056 ft | 507 kts | 279° |
| 2026-04-30 14:31 | 53.16169 | -11.83118 | 38066 ft | 507 kts | 278° |
| 2026-04-30 14:31 | 53.18224 | -12.00341 | 38055 ft | 507 kts | 279° |
| 2026-04-30 14:32 | 53.20297 | -12.17650 | 38060 ft | 507 kts | 278° |
| 2026-04-30 14:33 | 53.21655 | -12.29205 | 38057 ft | 507 kts | 278° |
| 2026-04-30 14:33 | 53.23666 | -12.46551 | 38073 ft | 509 kts | 279° |
| 2026-04-30 14:34 | 53.25000 | -12.58182 | 38058 ft | 509 kts | 278° |
| 2026-04-30 14:34 | 53.26321 | -12.69799 | 38066 ft | 509 kts | 278° |
| 2026-04-30 14:35 | 53.28274 | -12.87177 | 38072 ft | 509 kts | 278° |
| 2026-04-30 14:36 | 53.29567 | -12.98814 | 38077 ft | 509 kts | 278° |
| 2026-04-30 14:36 | 53.30846 | -13.10437 | 38066 ft | 508 kts | 278° |
| 2026-04-30 14:37 | 53.32114 | -13.22065 | 38065 ft | 507 kts | 278° |
| 2026-04-30 14:37 | 53.33361 | -13.33618 | 38072 ft | 507 kts | 278° |
| 2026-04-30 14:38 | 53.34604 | -13.45247 | 38081 ft | 507 kts | 278° |
| 2026-04-30 14:38 | 53.35836 | -13.56885 | 38073 ft | 508 kts | 278° |
| 2026-04-30 14:39 | 53.37057 | -13.68532 | 38079 ft | 508 kts | 278° |
| 2026-04-30 14:39 | 53.38268 | -13.80185 | 38077 ft | 508 kts | 278° |
| 2026-04-30 14:40 | 53.40055 | -13.97611 | 38080 ft | 508 kts | 278° |
| 2026-04-30 14:40 | 53.41236 | -14.09290 | 38064 ft | 508 kts | 278° |
| 2026-04-30 14:41 | 53.42404 | -14.20947 | 38080 ft | 504 kts | 278° |
| 2026-04-30 14:41 | 53.43553 | -14.32518 | 38081 ft | 502 kts | 278° |
| 2026-04-30 14:42 | 53.44690 | -14.44096 | 38091 ft | 502 kts | 278° |
| 2026-04-30 14:42 | 53.45807 | -14.55599 | 38090 ft | 502 kts | 278° |
| 2026-04-30 14:43 | 53.46921 | -14.67196 | 38092 ft | 504 kts | 278° |
| 2026-04-30 14:43 | 53.48029 | -14.78843 | 38092 ft | 505 kts | 278° |
| 2026-04-30 14:44 | 53.49125 | -14.90487 | 38093 ft | 505 kts | 278° |
| 2026-04-30 14:44 | 53.49999 | -15.02189 | 38098 ft | 504 kts | 272° |
| 2026-04-30 14:45 | 53.50318 | -15.13872 | 38101 ft | 504 kts | 271° |
| 2026-04-30 14:45 | 53.50539 | -15.25666 | 38104 ft | 506 kts | 270° |
| 2026-04-30 14:46 | 53.50739 | -15.37515 | 38096 ft | 506 kts | 270° |
| 2026-04-30 14:46 | 53.50937 | -15.49293 | 38109 ft | 504 kts | 270° |
| 2026-04-30 14:47 | 53.51125 | -15.60978 | 38111 ft | 502 kts | 270° |
| 2026-04-30 14:47 | 53.51305 | -15.72730 | 38122 ft | 503 kts | 271° |
| 2026-04-30 14:48 | 53.51472 | -15.84433 | 38118 ft | 498 kts | 271° |
| 2026-04-30 14:48 | 53.51629 | -15.96064 | 38119 ft | 499 kts | 271° |
| 2026-04-30 14:49 | 53.51773 | -16.07640 | 38119 ft | 498 kts | 271° |
| 2026-04-30 14:49 | 53.51905 | -16.19291 | 38125 ft | 499 kts | 271° |
| 2026-04-30 14:50 | 53.52083 | -16.36782 | 38127 ft | 498 kts | 271° |
| 2026-04-30 14:51 | 53.52235 | -16.54276 | 38130 ft | 498 kts | 270° |
| 2026-04-30 14:52 | 53.52362 | -16.71710 | 38143 ft | 499 kts | 270° |
| 2026-04-30 14:52 | 53.52463 | -16.89237 | 38142 ft | 502 kts | 270° |
| 2026-04-30 14:53 | 53.52539 | -17.06741 | 38143 ft | 503 kts | 270° |
| 2026-04-30 14:54 | 53.52575 | -17.18425 | 38881 ft | 493 kts | 270° |
| 2026-04-30 14:54 | 53.52600 | -17.29944 | 39202 ft | 493 kts | 270° |
| 2026-04-30 14:55 | 53.52613 | -17.41360 | 39816 ft | 484 kts | 270° |
| 2026-04-30 14:55 | 53.52615 | -17.47010 | 39935 ft | 484 kts | 270° |
| 2026-04-30 14:56 | 53.52599 | -17.69919 | 40098 ft | 492 kts | 270° |
| 2026-04-30 14:57 | 53.52558 | -17.87128 | 40173 ft | 492 kts | 270° |
| 2026-04-30 14:58 | 53.52465 | -18.10089 | 40178 ft | 490 kts | 270° |
| 2026-04-30 14:58 | 53.52367 | -18.27210 | 40179 ft | 490 kts | 270° |
| 2026-04-30 15:00 | 53.52147 | -18.55835 | 40191 ft | 488 kts | 270° |
| 2026-04-30 15:01 | 53.51924 | -18.78649 | 40194 ft | 488 kts | 270° |
| 2026-04-30 15:01 | 53.51731 | -18.95671 | 40194 ft | 487 kts | 269° |
| 2026-04-30 15:02 | 53.51586 | -19.07073 | 40195 ft | 487 kts | 269° |
| 2026-04-30 15:03 | 53.51179 | -19.35511 | 40201 ft | 487 kts | 269° |
| 2026-04-30 15:04 | 53.50706 | -19.63900 | 40209 ft | 488 kts | 269° |
| 2026-04-30 15:06 | 53.50163 | -19.92452 | 40219 ft | 489 kts | 269° |
| 2026-04-30 15:07 | 53.49286 | -20.15241 | 40222 ft | 489 kts | 265° |
| 2026-04-30 15:08 | 53.47811 | -20.37879 | 40227 ft | 489 kts | 265° |
| 2026-04-30 15:09 | 53.46080 | -20.66267 | 40238 ft | 489 kts | 266° |
| 2026-04-30 15:10 | 53.44656 | -20.88955 | 40249 ft | 489 kts | 265° |
| 2026-04-30 15:11 | 53.42427 | -21.23010 | 40258 ft | 491 kts | 265° |
| 2026-04-30 15:13 | 53.40625 | -21.49534 | 40257 ft | 491 kts | 265° |
| 2026-04-30 15:14 | 53.37809 | -21.89234 | 40268 ft | 491 kts | 265° |
| 2026-04-30 15:17 | 53.34000 | -22.40251 | 40287 ft | 492 kts | 264° |
| 2026-04-30 15:19 | 53.30420 | -22.85615 | 40300 ft | 490 kts | 265° |
| 2026-04-30 17:39 | 49.68658 | -53.11914 | 40359 ft | 477 kts | 245° |
| 2026-04-30 17:42 | 49.55612 | -53.56988 | 40340 ft | 475 kts | 245° |
| 2026-04-30 17:43 | 49.48812 | -53.80156 | 40333 ft | 475 kts | 245° |
| 2026-04-30 17:44 | 49.40617 | -54.07778 | 40319 ft | 474 kts | 244° |
| 2026-04-30 17:47 | 49.28165 | -54.49160 | 40306 ft | 476 kts | 244° |
| 2026-04-30 17:48 | 49.18402 | -54.81123 | 40283 ft | 473 kts | 244° |
| 2026-04-30 17:50 | 49.07176 | -55.17377 | 40285 ft | 472 kts | 244° |
| 2026-04-30 17:52 | 48.98700 | -55.44402 | 40286 ft | 471 kts | 243° |
| 2026-04-30 17:54 | 48.85868 | -55.84766 | 40260 ft | 471 kts | 243° |
| 2026-04-30 17:56 | 48.74379 | -56.20387 | 40257 ft | 470 kts | 243° |
| 2026-04-30 17:58 | 48.65671 | -56.47010 | 40255 ft | 468 kts | 242° |
| 2026-04-30 18:00 | 48.54057 | -56.82131 | 40249 ft | 467 kts | 242° |
| 2026-04-30 18:01 | 48.46741 | -57.04004 | 40259 ft | 467 kts | 242° |
| 2026-04-30 18:02 | 48.37912 | -57.30160 | 40284 ft | 467 kts | 241° |
| 2026-04-30 18:04 | 48.29057 | -57.56125 | 40263 ft | 465 kts | 240° |
| 2026-04-30 18:06 | 48.17169 | -57.90577 | 40252 ft | 465 kts | 240° |
| 2026-04-30 18:08 | 48.06683 | -58.20592 | 40250 ft | 465 kts | 240° |
| 2026-04-30 18:10 | 47.94585 | -58.54796 | 40251 ft | 466 kts | 240° |
| 2026-04-30 18:11 | 47.83920 | -58.84586 | 40255 ft | 466 kts | 239° |
| 2026-04-30 18:13 | 47.76256 | -59.05786 | 40255 ft | 466 kts | 239° |
| 2026-04-30 18:14 | 47.68527 | -59.26992 | 40239 ft | 466 kts | 239° |
| 2026-04-30 18:15 | 47.59220 | -59.52307 | 40224 ft | 467 kts | 239° |
| 2026-04-30 18:16 | 47.52947 | -59.69234 | 40228 ft | 469 kts | 239° |
| 2026-04-30 18:17 | 47.49797 | -59.77694 | 40219 ft | 469 kts | 239° |
| 2026-04-30 18:18 | 47.45061 | -59.90362 | 40224 ft | 469 kts | 239° |
| 2026-04-30 18:18 | 47.41891 | -59.98807 | 40218 ft | 469 kts | 239° |
| 2026-04-30 18:19 | 47.38738 | -60.07183 | 40219 ft | 470 kts | 239° |
| 2026-04-30 18:19 | 47.35558 | -60.15605 | 40205 ft | 470 kts | 239° |
| 2026-04-30 18:20 | 47.32370 | -60.24019 | 40200 ft | 470 kts | 239° |
| 2026-04-30 18:20 | 47.29176 | -60.32424 | 40204 ft | 469 kts | 239° |
| 2026-04-30 18:21 | 47.25979 | -60.40809 | 40203 ft | 469 kts | 239° |
| 2026-04-30 18:21 | 47.22772 | -60.49194 | 40197 ft | 469 kts | 239° |
| 2026-04-30 18:22 | 47.19585 | -60.57503 | 40189 ft | 469 kts | 239° |
| 2026-04-30 18:22 | 47.14760 | -60.70031 | 40181 ft | 469 kts | 239° |
| 2026-04-30 18:23 | 47.11534 | -60.78374 | 40188 ft | 469 kts | 239° |
| 2026-04-30 18:23 | 47.08301 | -60.86711 | 40165 ft | 469 kts | 239° |
| 2026-04-30 18:24 | 47.03993 | -60.97777 | 40160 ft | 469 kts | 239° |
| 2026-04-30 18:25 | 47.00226 | -61.07417 | 40151 ft | 469 kts | 239° |
| 2026-04-30 18:25 | 46.95889 | -61.18476 | 40151 ft | 469 kts | 239° |
| 2026-04-30 18:26 | 46.90998 | -61.30893 | 40141 ft | 469 kts | 239° |
| 2026-04-30 18:27 | 46.86095 | -61.43284 | 40129 ft | 469 kts | 239° |
| 2026-04-30 18:28 | 46.81200 | -61.55599 | 40122 ft | 469 kts | 239° |
| 2026-04-30 18:28 | 46.76270 | -61.67946 | 40119 ft | 469 kts | 239° |
| 2026-04-30 18:29 | 46.69698 | -61.84328 | 40110 ft | 465 kts | 239° |
| 2026-04-30 18:30 | 46.63157 | -62.00524 | 40135 ft | 467 kts | 238° |
| 2026-04-30 18:31 | 46.58192 | -62.12750 | 40129 ft | 468 kts | 238° |
| 2026-04-30 18:32 | 46.53216 | -62.24955 | 40127 ft | 468 kts | 238° |
| 2026-04-30 18:33 | 46.48223 | -62.37148 | 40122 ft | 467 kts | 238° |
| 2026-04-30 18:33 | 46.43257 | -62.49221 | 40110 ft | 465 kts | 238° |
| 2026-04-30 18:34 | 46.38267 | -62.61300 | 40108 ft | 465 kts | 238° |
| 2026-04-30 18:35 | 46.34956 | -62.69285 | 40105 ft | 465 kts | 238° |
| 2026-04-30 18:35 | 46.31624 | -62.77297 | 40096 ft | 464 kts | 238° |
| 2026-04-30 18:36 | 46.26617 | -62.89294 | 40077 ft | 464 kts | 238° |
| 2026-04-30 18:37 | 46.21618 | -63.01222 | 40073 ft | 464 kts | 238° |
| 2026-04-30 18:37 | 46.18272 | -63.09177 | 40073 ft | 463 kts | 238° |
| 2026-04-30 18:38 | 46.14919 | -63.17126 | 40076 ft | 463 kts | 238° |
| 2026-04-30 18:38 | 46.11568 | -63.25046 | 40072 ft | 463 kts | 238° |
| 2026-04-30 18:39 | 46.08203 | -63.32977 | 40071 ft | 464 kts | 238° |
| 2026-04-30 18:39 | 46.04821 | -63.40928 | 40059 ft | 466 kts | 238° |
| 2026-04-30 18:40 | 46.01425 | -63.48886 | 40055 ft | 466 kts | 238° |
| 2026-04-30 18:40 | 45.98046 | -63.56781 | 40056 ft | 466 kts | 238° |
| 2026-04-30 18:41 | 45.94638 | -63.64723 | 40043 ft | 466 kts | 238° |
| 2026-04-30 18:41 | 45.91228 | -63.72646 | 40042 ft | 466 kts | 238° |
| 2026-04-30 18:42 | 45.87820 | -63.80545 | 40038 ft | 465 kts | 238° |
| 2026-04-30 18:42 | 45.82691 | -63.92387 | 40033 ft | 465 kts | 238° |
| 2026-04-30 18:45 | 45.63849 | -64.35470 | 40012 ft | 462 kts | 237° |
| 2026-04-30 18:46 | 45.60700 | -64.42604 | 40015 ft | 461 kts | 237° |
| 2026-04-30 18:46 | 45.57280 | -64.50335 | 40015 ft | 460 kts | 237° |
| 2026-04-30 18:47 | 45.53874 | -64.58012 | 40010 ft | 460 kts | 237° |
| 2026-04-30 18:47 | 45.50448 | -64.65713 | 40009 ft | 459 kts | 237° |
| 2026-04-30 18:48 | 45.47025 | -64.73385 | 40022 ft | 458 kts | 237° |
| 2026-04-30 18:48 | 45.43608 | -64.81026 | 40009 ft | 457 kts | 237° |
| 2026-04-30 18:49 | 45.40186 | -64.88655 | 40007 ft | 457 kts | 237° |
| 2026-04-30 18:49 | 45.36785 | -64.96218 | 40001 ft | 456 kts | 237° |
| 2026-04-30 18:50 | 45.33366 | -65.03801 | 39994 ft | 455 kts | 237° |
| 2026-04-30 18:50 | 45.29937 | -65.11386 | 39996 ft | 455 kts | 237° |
| 2026-04-30 18:51 | 45.26512 | -65.18941 | 39994 ft | 455 kts | 237° |
| 2026-04-30 18:51 | 45.23078 | -65.26495 | 39993 ft | 455 kts | 236° |
| 2026-04-30 18:52 | 45.19664 | -65.33987 | 39989 ft | 454 kts | 236° |
| 2026-04-30 18:52 | 45.16222 | -65.41519 | 39988 ft | 454 kts | 236° |
| 2026-04-30 18:53 | 45.12776 | -65.49041 | 39993 ft | 455 kts | 236° |
| 2026-04-30 18:53 | 45.09346 | -65.56509 | 39972 ft | 455 kts | 236° |
| 2026-04-30 18:54 | 45.05887 | -65.64019 | 39971 ft | 455 kts | 236° |
| 2026-04-30 18:54 | 45.02428 | -65.71509 | 39967 ft | 455 kts | 236° |
| 2026-04-30 18:55 | 44.98962 | -65.78996 | 39958 ft | 455 kts | 236° |
| 2026-04-30 18:55 | 44.93753 | -65.90210 | 39952 ft | 455 kts | 236° |
| 2026-04-30 18:56 | 44.88533 | -66.01404 | 39950 ft | 455 kts | 236° |
| 2026-04-30 18:57 | 44.83327 | -66.12524 | 39938 ft | 455 kts | 236° |
| 2026-04-30 18:57 | 44.79837 | -66.19956 | 39930 ft | 454 kts | 236° |
| 2026-04-30 18:58 | 44.74610 | -66.31048 | 39925 ft | 453 kts | 236° |
| 2026-04-30 18:59 | 44.69390 | -66.42084 | 39911 ft | 453 kts | 235° |
| 2026-04-30 19:00 | 44.62396 | -66.56803 | 39902 ft | 452 kts | 235° |
| 2026-04-30 19:01 | 44.55389 | -66.71477 | 39891 ft | 452 kts | 235° |
| 2026-04-30 19:02 | 44.50140 | -66.82421 | 39889 ft | 452 kts | 235° |
| 2026-04-30 19:03 | 44.43099 | -66.97034 | 39884 ft | 453 kts | 235° |
| 2026-04-30 19:04 | 44.34884 | -67.10376 | 39888 ft | 452 kts | 227° |
| 2026-04-30 19:05 | 44.26419 | -67.23306 | 39876 ft | 452 kts | 227° |
| 2026-04-30 19:06 | 44.17901 | -67.36248 | 39864 ft | 453 kts | 227° |
| 2026-04-30 19:06 | 44.11495 | -67.45943 | 39861 ft | 453 kts | 227° |
| 2026-04-30 19:07 | 44.05091 | -67.55599 | 39851 ft | 452 kts | 227° |
| 2026-04-30 19:08 | 43.96582 | -67.68379 | 39850 ft | 452 kts | 227° |
| 2026-04-30 19:09 | 43.90171 | -67.77972 | 39845 ft | 451 kts | 227° |
| 2026-04-30 19:09 | 43.85896 | -67.84348 | 39837 ft | 451 kts | 227° |
| 2026-04-30 19:10 | 43.77375 | -67.97017 | 39829 ft | 451 kts | 227° |
| 2026-04-30 19:11 | 43.70952 | -68.06529 | 39824 ft | 451 kts | 227° |
| 2026-04-30 19:12 | 43.66663 | -68.12863 | 39821 ft | 451 kts | 227° |
| 2026-04-30 19:12 | 43.62401 | -68.19142 | 39818 ft | 450 kts | 227° |
| 2026-04-30 19:13 | 43.53819 | -68.31746 | 39825 ft | 449 kts | 227° |
| 2026-04-30 19:14 | 43.49556 | -68.37986 | 39822 ft | 449 kts | 227° |
| 2026-04-30 19:14 | 43.45273 | -68.44240 | 39822 ft | 449 kts | 227° |
| 2026-04-30 19:15 | 43.40992 | -68.50479 | 39815 ft | 448 kts | 227° |
| 2026-04-30 19:15 | 43.34558 | -68.59830 | 39834 ft | 448 kts | 227° |
| 2026-04-30 19:16 | 43.30993 | -68.64996 | 39809 ft | 448 kts | 227° |
| 2026-04-30 19:17 | 43.24537 | -68.74330 | 39809 ft | 449 kts | 227° |
| 2026-04-30 19:17 | 43.18072 | -68.83646 | 39806 ft | 449 kts | 227° |
| 2026-04-30 19:18 | 43.11609 | -68.92929 | 39804 ft | 448 kts | 227° |
| 2026-04-30 19:19 | 43.07327 | -68.99062 | 39804 ft | 448 kts | 227° |
| 2026-04-30 19:19 | 43.00884 | -69.08265 | 39793 ft | 434 kts | 227° |
| 2026-04-30 19:20 | 42.98832 | -69.11188 | 39795 ft | 418 kts | 227° |
| 2026-04-30 19:20 | 42.96842 | -69.14022 | 39798 ft | 409 kts | 227° |
| 2026-04-30 19:21 | 42.90961 | -69.22383 | 39798 ft | 407 kts | 227° |
| 2026-04-30 19:22 | 42.83123 | -69.33486 | 39797 ft | 407 kts | 227° |
| 2026-04-30 19:23 | 42.71310 | -69.50135 | 39799 ft | 407 kts | 227° |
| 2026-04-30 19:24 | 42.65422 | -69.58399 | 39798 ft | 407 kts | 227° |
| 2026-04-30 19:25 | 42.55550 | -69.72198 | 39799 ft | 407 kts | 227° |
| 2026-04-30 19:26 | 42.47647 | -69.83197 | 39803 ft | 407 kts | 227° |
| 2026-04-30 19:27 | 42.41716 | -69.91424 | 39796 ft | 407 kts | 227° |
| 2026-04-30 19:28 | 42.35806 | -69.99599 | 39803 ft | 406 kts | 226° |
| 2026-04-30 19:29 | 42.27885 | -70.10517 | 39802 ft | 406 kts | 226° |
| 2026-04-30 19:30 | 42.19997 | -70.21349 | 39814 ft | 405 kts | 226° |
| 2026-04-30 19:31 | 42.12078 | -70.32183 | 39799 ft | 406 kts | 226° |
| 2026-04-30 19:31 | 42.06193 | -70.40296 | 39797 ft | 404 kts | 230° |
| 2026-04-30 19:32 | 42.03139 | -70.46611 | 39801 ft | 403 kts | 245° |
| 2026-04-30 19:32 | 42.00939 | -70.53554 | 39796 ft | 404 kts | 246° |
| 2026-04-30 19:33 | 41.98765 | -70.60536 | 39796 ft | 404 kts | 246° |
| 2026-04-30 19:33 | 41.96589 | -70.67465 | 39792 ft | 404 kts | 246° |
| 2026-04-30 19:34 | 41.94400 | -70.74399 | 39795 ft | 403 kts | 246° |
| 2026-04-30 19:35 | 41.91103 | -70.84802 | 39794 ft | 402 kts | 246° |
| 2026-04-30 19:35 | 41.88904 | -70.91718 | 39801 ft | 403 kts | 246° |
| 2026-04-30 19:36 | 41.86712 | -70.98593 | 39781 ft | 404 kts | 246° |
| 2026-04-30 19:36 | 41.83367 | -71.09054 | 39557 ft | 406 kts | 246° |
| 2026-04-30 19:37 | 41.82255 | -71.12522 | 39437 ft | 402 kts | 246° |
| 2026-04-30 19:37 | 41.81150 | -71.15962 | 38780 ft | 404 kts | 245° |
| 2026-04-30 19:37 | 41.80040 | -71.19416 | 38181 ft | 403 kts | 245° |
| 2026-04-30 19:37 | 41.78934 | -71.22853 | 37638 ft | 400 kts | 245° |
| 2026-04-30 19:38 | 41.77835 | -71.26262 | 37046 ft | 397 kts | 245° |
| 2026-04-30 19:38 | 41.76742 | -71.29648 | 36454 ft | 395 kts | 245° |
| 2026-04-30 19:38 | 41.75645 | -71.33044 | 35724 ft | 397 kts | 245° |
| 2026-04-30 19:38 | 41.74539 | -71.36460 | 34982 ft | 400 kts | 245° |
| 2026-04-30 19:39 | 41.73391 | -71.39831 | 34486 ft | 396 kts | 242° |
| 2026-04-30 19:39 | 41.71931 | -71.42935 | 33892 ft | 394 kts | 233° |
| 2026-04-30 19:39 | 41.70086 | -71.45580 | 33323 ft | 392 kts | 224° |
| 2026-04-30 19:39 | 41.68024 | -71.47946 | 32842 ft | 389 kts | 223° |
| 2026-04-30 19:40 | 41.65941 | -71.50257 | 32382 ft | 390 kts | 223° |
| 2026-04-30 19:40 | 41.63846 | -71.52580 | 31914 ft | 392 kts | 223° |
| 2026-04-30 19:40 | 41.61736 | -71.54924 | 31444 ft | 394 kts | 223° |
| 2026-04-30 19:40 | 41.59617 | -71.57281 | 30993 ft | 397 kts | 223° |
| 2026-04-30 19:41 | 41.57483 | -71.59655 | 30506 ft | 400 kts | 223° |
| 2026-04-30 19:41 | 41.55338 | -71.62039 | 30017 ft | 403 kts | 223° |
| 2026-04-30 19:41 | 41.53203 | -71.64411 | 29483 ft | 405 kts | 223° |
| 2026-04-30 19:41 | 41.51011 | -71.66843 | 28983 ft | 404 kts | 223° |
| 2026-04-30 19:42 | 41.48876 | -71.69212 | 28504 ft | 403 kts | 223° |
| 2026-04-30 19:42 | 41.46723 | -71.71598 | 28025 ft | 402 kts | 223° |
| 2026-04-30 19:42 | 41.44579 | -71.73973 | 27540 ft | 400 kts | 223° |
| 2026-04-30 19:42 | 41.42443 | -71.76336 | 27053 ft | 397 kts | 223° |
| 2026-04-30 19:43 | 41.40321 | -71.78681 | 26570 ft | 395 kts | 222° |
| 2026-04-30 19:43 | 41.38206 | -71.81018 | 26081 ft | 394 kts | 222° |
| 2026-04-30 19:43 | 41.36100 | -71.83342 | 25595 ft | 392 kts | 222° |
| 2026-04-30 19:44 | 41.31918 | -71.87952 | 24620 ft | 388 kts | 222° |
| 2026-04-30 19:44 | 41.29842 | -71.90238 | 24138 ft | 387 kts | 221° |
| 2026-04-30 19:44 | 41.27768 | -71.92522 | 23683 ft | 385 kts | 221° |
| 2026-04-30 19:44 | 41.25733 | -71.94763 | 23241 ft | 384 kts | 221° |
| 2026-04-30 19:45 | 41.23681 | -71.97013 | 22801 ft | 382 kts | 221° |
| 2026-04-30 19:45 | 41.21630 | -71.99261 | 22395 ft | 379 kts | 221° |
| 2026-04-30 19:45 | 41.19602 | -72.01483 | 21986 ft | 376 kts | 221° |
| 2026-04-30 19:45 | 41.17589 | -72.03686 | 21593 ft | 374 kts | 221° |
| 2026-04-30 19:46 | 41.15590 | -72.05873 | 21214 ft | 371 kts | 221° |
| 2026-04-30 19:46 | 41.13600 | -72.08049 | 20812 ft | 369 kts | 221° |
| 2026-04-30 19:46 | 41.11642 | -72.10231 | 20433 ft | 366 kts | 224° |
| 2026-04-30 19:46 | 41.10021 | -72.12736 | 20045 ft | 362 kts | 238° |
| 2026-04-30 19:47 | 41.08970 | -72.15754 | 19667 ft | 360 kts | 249° |
| 2026-04-30 19:47 | 41.08434 | -72.17857 | 19411 ft | 354 kts | 250° |
| 2026-04-30 19:47 | 41.07459 | -72.21904 | 18907 ft | 342 kts | 250° |
| 2026-04-30 19:47 | 41.06740 | -72.24871 | 18554 ft | 334 kts | 250° |
| 2026-04-30 19:48 | 41.06027 | -72.27781 | 18315 ft | 330 kts | 250° |
| 2026-04-30 19:48 | 41.05314 | -72.30669 | 17993 ft | 329 kts | 250° |
| 2026-04-30 19:48 | 41.04602 | -72.33540 | 17626 ft | 328 kts | 250° |
| 2026-04-30 19:48 | 41.03890 | -72.36401 | 17275 ft | 326 kts | 250° |
| 2026-04-30 19:49 | 41.03182 | -72.39243 | 16924 ft | 324 kts | 250° |
| 2026-04-30 19:49 | 41.01776 | -72.44876 | 16246 ft | 320 kts | 250° |
| 2026-04-30 19:49 | 41.01078 | -72.47668 | 15906 ft | 318 kts | 250° |
| 2026-04-30 19:50 | 41.00385 | -72.50436 | 15567 ft | 316 kts | 250° |
| 2026-04-30 19:50 | 40.99701 | -72.53161 | 15248 ft | 314 kts | 250° |
| 2026-04-30 19:50 | 40.99014 | -72.55897 | 14926 ft | 312 kts | 250° |
| 2026-04-30 19:50 | 40.98355 | -72.58529 | 14692 ft | 288 kts | 250° |
| 2026-04-30 19:51 | 40.97744 | -72.60964 | 14471 ft | 271 kts | 250° |
| 2026-04-30 19:51 | 40.97149 | -72.63328 | 14247 ft | 271 kts | 250° |
| 2026-04-30 19:51 | 40.96557 | -72.65672 | 13939 ft | 268 kts | 250° |
| 2026-04-30 19:51 | 40.95965 | -72.68016 | 13640 ft | 267 kts | 250° |
| 2026-04-30 19:52 | 40.95374 | -72.70354 | 13367 ft | 267 kts | 250° |
| 2026-04-30 19:52 | 40.94793 | -72.72649 | 13088 ft | 267 kts | 250° |
| 2026-04-30 19:52 | 40.94207 | -72.74967 | 12785 ft | 264 kts | 250° |
| 2026-04-30 19:52 | 40.93621 | -72.77269 | 12513 ft | 265 kts | 249° |
| 2026-04-30 19:53 | 40.92850 | -72.79441 | 12179 ft | 263 kts | 236° |
| 2026-04-30 19:53 | 40.91604 | -72.81226 | 11855 ft | 266 kts | 221° |
| 2026-04-30 19:53 | 40.90118 | -72.82700 | 11562 ft | 267 kts | 218° |
| 2026-04-30 19:53 | 40.88602 | -72.84126 | 11329 ft | 266 kts | 218° |
| 2026-04-30 19:54 | 40.87116 | -72.85530 | 11108 ft | 265 kts | 218° |
| 2026-04-30 19:54 | 40.85617 | -72.86953 | 10897 ft | 265 kts | 218° |
| 2026-04-30 19:54 | 40.84121 | -72.88380 | 10680 ft | 265 kts | 218° |
| 2026-04-30 19:54 | 40.82630 | -72.89805 | 10460 ft | 265 kts | 218° |
| 2026-04-30 19:55 | 40.81139 | -72.91231 | 10244 ft | 264 kts | 218° |
| 2026-04-30 19:55 | 40.79650 | -72.92656 | 10025 ft | 264 kts | 218° |
| 2026-04-30 19:55 | 40.78164 | -72.94077 | 9708 ft | 264 kts | 217° |
| 2026-04-30 19:55 | 40.76678 | -72.95495 | 9218 ft | 263 kts | 218° |
| 2026-04-30 19:56 | 40.75188 | -72.96915 | 8962 ft | 265 kts | 218° |
| 2026-04-30 19:56 | 40.73700 | -72.98337 | 8494 ft | 264 kts | 218° |
| 2026-04-30 19:56 | 40.72206 | -72.99764 | 7958 ft | 266 kts | 218° |
| 2026-04-30 19:56 | 40.70710 | -73.01198 | 7504 ft | 264 kts | 219° |
| 2026-04-30 19:57 | 40.69397 | -73.02845 | 7042 ft | 260 kts | 235° |
| 2026-04-30 19:57 | 40.68646 | -73.04984 | 6528 ft | 258 kts | 258° |
| 2026-04-30 19:57 | 40.68503 | -73.07338 | 6060 ft | 258 kts | 270° |
| 2026-04-30 19:57 | 40.68540 | -73.09694 | 5593 ft | 256 kts | 273° |
| 2026-04-30 19:58 | 40.69044 | -73.11925 | 5137 ft | 256 kts | 298° |
| 2026-04-30 19:58 | 40.70197 | -73.13653 | 4981 ft | 259 kts | 323° |
| 2026-04-30 19:58 | 40.71744 | -73.14880 | 4971 ft | 258 kts | 325° |
| 2026-04-30 19:58 | 40.73069 | -73.16457 | 5034 ft | 257 kts | 311° |
| 2026-04-30 19:59 | 40.74289 | -73.18181 | 5098 ft | 257 kts | 308° |
| 2026-04-30 19:59 | 40.75427 | -73.20003 | 4974 ft | 256 kts | 307° |
| 2026-04-30 19:59 | 40.77993 | -73.23238 | 4066 ft | 256 kts | 316° |
| 2026-04-30 20:00 | 40.79192 | -73.24965 | 3662 ft | 254 kts | 308° |
| 2026-04-30 20:00 | 40.80279 | -73.26800 | 3227 ft | 253 kts | 306° |
| 2026-04-30 20:00 | 40.81359 | -73.28631 | 2977 ft | 253 kts | 302° |
| 2026-04-30 20:00 | 40.82134 | -73.30717 | 2957 ft | 252 kts | 291° |
| 2026-04-30 20:01 | 40.83338 | -73.34990 | 2949 ft | 237 kts | 290° |
| 2026-04-30 20:01 | 40.83884 | -73.36955 | 2944 ft | 219 kts | 290° |
| 2026-04-30 20:01 | 40.84362 | -73.38767 | 2959 ft | 198 kts | 284° |
| 2026-04-30 20:02 | 40.84305 | -73.42079 | 2969 ft | 180 kts | 259° |
| 2026-04-30 20:02 | 40.84024 | -73.43747 | 2967 ft | 189 kts | 258° |
| 2026-04-30 20:03 | 40.83536 | -73.46580 | 2962 ft | 191 kts | 258° |
| 2026-04-30 20:03 | 40.83241 | -73.48295 | 2963 ft | 191 kts | 258° |
| 2026-04-30 20:03 | 40.82947 | -73.50008 | 2966 ft | 192 kts | 258° |
| 2026-04-30 20:03 | 40.82556 | -73.52279 | 2967 ft | 192 kts | 258° |
| 2026-04-30 20:04 | 40.82356 | -73.53442 | 2965 ft | 192 kts | 258° |
| 2026-04-30 20:04 | 40.82062 | -73.55157 | 2964 ft | 191 kts | 258° |
| 2026-04-30 20:04 | 40.81771 | -73.56850 | 2969 ft | 191 kts | 258° |
| 2026-04-30 20:05 | 40.81183 | -73.60276 | 2968 ft | 191 kts | 258° |
| 2026-04-30 20:05 | 40.80682 | -73.61930 | 2969 ft | 193 kts | 241° |
| 2026-04-30 20:05 | 40.78739 | -73.64320 | 2966 ft | 192 kts | 213° |
| 2026-04-30 20:06 | 40.77603 | -73.65206 | 2967 ft | 188 kts | 213° |
| 2026-04-30 20:06 | 40.76481 | -73.66091 | 2809 ft | 186 kts | 214° |
| 2026-04-30 20:06 | 40.75372 | -73.66972 | 2541 ft | 186 kts | 213° |
| 2026-04-30 20:06 | 40.74263 | -73.67842 | 2300 ft | 183 kts | 214° |
| 2026-04-30 20:07 | 40.73165 | -73.68705 | 2034 ft | 184 kts | 214° |
| 2026-04-30 20:07 | 40.72066 | -73.69569 | 1755 ft | 181 kts | 214° |
| 2026-04-30 20:07 | 40.70012 | -73.71181 | 1292 ft | 162 kts | 214° |
| 2026-04-30 20:08 | 40.69069 | -73.71922 | 1083 ft | 154 kts | 213° |
| 2026-04-30 20:08 | 40.68157 | -73.72626 | 847 ft | 147 kts | 213° |
| 2026-04-30 20:08 | 40.67320 | -73.73293 | 641 ft | 138 kts | 214° |
| 2026-04-30 20:08 | 40.66511 | -73.73936 | 464 ft | 135 kts | 212° |
| 2026-04-30 20:09 | 40.65710 | -73.74565 | 308 ft | 133 kts | 211° |
| 2026-04-30 20:09 | 40.64905 | -73.75182 | 140 ft | 134 kts | 211° |
| 2026-04-30 20:09 | 40.63532 | -73.76262 | 29 ft | 72 kts | 211° |
| 2026-04-30 20:10 | 40.63049 | -73.76664 | 31 ft | 20 kts | 225° |
| 2026-04-30 20:10 | 40.62961 | -73.76816 | 26 ft | 20 kts | 238° |
| 2026-04-30 20:10 | 40.62935 | -73.76972 | 26 ft | 19 kts | 289° |
| 2026-04-30 20:11 | 40.63084 | -73.77314 | 27 ft | 24 kts | 302° |
| 2026-04-30 20:11 | 40.63176 | -73.77511 | 28 ft | 26 kts | 301° |
| 2026-04-30 20:11 | 40.63273 | -73.77725 | 30 ft | 28 kts | 300° |
| 2026-04-30 20:12 | 40.63414 | -73.78047 | 27 ft | 19 kts | 299° |
| 2026-04-30 20:12 | 40.63483 | -73.78203 | 27 ft | 21 kts | 300° |
| 2026-04-30 20:12 | 40.63563 | -73.78379 | 27 ft | 24 kts | 301° |
| 2026-04-30 20:13 | 40.63653 | -73.78575 | 27 ft | 26 kts | 301° |
| 2026-04-30 20:13 | 40.63743 | -73.78773 | 27 ft | 20 kts | 301° |
| 2026-04-30 20:13 | 40.63814 | -73.78931 | 27 ft | 19 kts | 300° |
| 2026-04-30 20:13 | 40.63876 | -73.79072 | 26 ft | 15 kts | 300° |
| 2026-04-30 20:14 | 40.63929 | -73.79188 | 32 ft | 14 kts | 301° |
| 2026-04-30 20:14 | 40.63978 | -73.79294 | 32 ft | 13 kts | 301° |
| 2026-04-30 20:14 | 40.64021 | -73.79388 | 26 ft | 11 kts | 301° |
| 2026-04-30 20:14 | 40.64065 | -73.79466 | 26 ft | 11 kts | 318° |
| 2026-04-30 20:15 | 40.64139 | -73.79502 | 26 ft | 14 kts | 354° |
| 2026-04-30 20:15 | 40.64257 | -73.79499 | 26 ft | 19 kts | 3° |
| 2026-04-30 20:15 | 40.64383 | -73.79492 | 29 ft | 17 kts | 358° |
| 2026-04-30 20:15 | 40.64499 | -73.79501 | 29 ft | 16 kts | 356° |
| 2026-04-30 20:16 | 40.64601 | -73.79529 | 29 ft | 14 kts | 330° |
| 2026-04-30 20:16 | 40.64679 | -73.79596 | 27 ft | 8 kts | 326° |
| 2026-04-30 20:16 | 40.64728 | -73.79637 | 27 ft | 7 kts | 335° |
| 2026-04-30 20:16 | 40.64741 | -73.79631 | 28 ft | 1 kts | 35° |
| 2026-04-30 20:17 | 40.64746 | -73.79617 | 26 ft | 5 kts | 61° |
| 2026-04-30 20:17 | 40.64768 | -73.79564 | 26 ft | 8 kts | 61° |
| 2026-04-30 20:17 | 40.64799 | -73.79492 | 28 ft | 10 kts | 60° |
| 2026-04-30 20:17 | 40.64836 | -73.79404 | 27 ft | 11 kts | 61° |
| 2026-04-30 20:18 | 40.64870 | -73.79323 | 26 ft | 10 kts | 60° |
| 2026-04-30 20:18 | 40.64901 | -73.79252 | 28 ft | 8 kts | 61° |
| 2026-04-30 20:18 | 40.64927 | -73.79189 | 26 ft | 7 kts | 61° |
| 2026-04-30 20:18 | 40.64950 | -73.79135 | 29 ft | 6 kts | 60° |
| 2026-04-30 20:19 | 40.64970 | -73.79090 | 28 ft | 5 kts | 60° |
| 2026-04-30 20:19 | 40.64986 | -73.79053 | 28 ft | 4 kts | 60° |
| 2026-04-30 20:19 | 40.64999 | -73.79022 | 27 ft | 3 kts | 60° |
| 2026-04-30 20:19 | 40.65016 | -73.78981 | 26 ft | 6 kts | 66° |
| 2026-04-30 20:20 | 40.65005 | -73.78956 | 29 ft | 2 kts | 166° |
| 2026-04-30 20:20 | 40.64987 | -73.78963 | 28 ft | 3 kts | 193° |
| 2026-04-30 20:20 | 40.64964 | -73.78972 | 27 ft | 4 kts | 197° |
| 2026-04-30 20:20 | 40.64958 | -73.78974 | 28 ft | 0 kts | 197° |
| 2026-04-30 20:21 | 40.64957 | -73.78973 | 28 ft | 0 kts | 198° |
| 2026-04-30 20:22 | 40.64967 | -73.78969 | 27 ft | 0 kts | 198° |